Time;durP1;ratioP1;P1;durP2;ratioP2;P2;SDS_P1;SDS_P2;PMS_P1;PMS_P2;Temp;Humidity;BMP_temperature;BMP_pressure;BME280_temperature;BME280_humidity;BME280_pressure;Samples;Min_cycle;Max_cycle;Signal;HPM_P1;HPM_P2
2021/03/01 00:00:28;;;;;;;10.80;9.27;;;4.50;99.90;;;;;;5056125;28;20173;-68
2021/03/01 00:02:54;;;;;;;12.80;9.90;;;4.50;99.90;;;;;;5056239;28;20452;-68
2021/03/01 00:05:20;;;;;;;12.73;9.57;;;4.50;99.90;;;;;;5056295;28;20542;-68
2021/03/01 00:07:46;;;;;;;14.23;10.50;;;4.50;99.90;;;;;;5055893;28;20425;-68
2021/03/01 00:10:13;;;;;;;14.00;11.20;;;4.40;99.90;;;;;;5083861;23;20546;-68
2021/03/01 00:12:39;;;;;;;15.50;10.50;;;4.40;99.90;;;;;;5055800;28;20398;-68
2021/03/01 00:15:06;;;;;;;14.50;11.10;;;4.30;99.90;;;;;;5056522;28;20396;-68
2021/03/01 00:17:32;;;;;;;14.33;11.00;;;4.30;99.90;;;;;;5056548;28;20400;-68
2021/03/01 00:19:58;;;;;;;12.03;10.67;;;4.30;99.90;;;;;;5056334;28;20428;-68
2021/03/01 00:22:23;;;;;;;12.97;10.17;;;4.20;99.90;;;;;;5038306;28;20198;-67
2021/03/01 00:24:49;;;;;;;14.20;10.80;;;4.20;99.90;;;;;;5055997;28;20673;-67
2021/03/01 00:27:14;;;;;;;16.00;11.47;;;4.10;99.90;;;;;;5056081;28;20170;-67
2021/03/01 00:29:40;;;;;;;13.87;10.80;;;4.20;99.90;;;;;;5055938;28;20186;-68
2021/03/01 00:32:06;;;;;;;13.73;11.70;;;4.20;99.90;;;;;;5056080;28;20174;-68
2021/03/01 00:34:31;;;;;;;15.33;11.33;;;4.20;99.90;;;;;;5056007;28;20216;-68
2021/03/01 00:36:57;;;;;;;15.27;12.20;;;4.10;99.90;;;;;;5056524;28;20541;-68
2021/03/01 00:39:23;;;;;;;12.67;9.97;;;4.00;99.90;;;;;;5055741;28;20199;-67
2021/03/01 00:41:49;;;;;;;13.57;10.37;;;4.00;99.90;;;;;;5055954;28;20622;-68
2021/03/01 00:44:14;;;;;;;14.20;10.87;;;4.10;99.90;;;;;;5055873;28;20197;-68
2021/03/01 00:46:40;;;;;;;12.03;9.47;;;4.10;99.90;;;;;;5055870;28;20175;-68
2021/03/01 00:49:05;;;;;;;10.90;9.23;;;4.00;99.90;;;;;;5055999;28;20336;-68
2021/03/01 00:51:32;;;;;;;12.03;9.83;;;4.00;99.90;;;;;;5055721;28;20184;-68
2021/03/01 00:53:58;;;;;;;11.97;10.30;;;3.90;99.90;;;;;;5060917;28;20628;-66
2021/03/01 00:56:24;;;;;;;12.37;9.27;;;3.90;99.90;;;;;;5063263;28;20424;-66
2021/03/01 00:58:50;;;;;;;15.30;10.60;;;3.90;99.90;;;;;;5063171;28;20412;-65
2021/03/01 01:01:15;;;;;;;12.63;9.97;;;3.90;99.90;;;;;;5061941;28;20213;-66
2021/03/01 01:03:41;;;;;;;13.73;9.93;;;3.90;99.90;;;;;;5063337;28;20198;-67
2021/03/01 01:06:07;;;;;;;12.20;9.10;;;3.90;99.90;;;;;;5063045;28;20202;-65
2021/03/01 01:08:32;;;;;;;11.50;9.57;;;3.80;99.90;;;;;;5062839;28;20177;-67
2021/03/01 01:10:58;;;;;;;11.13;9.57;;;3.80;99.90;;;;;;5062957;28;20201;-66
2021/03/01 01:13:24;;;;;;;10.53;8.87;;;3.90;99.90;;;;;;5045395;28;20170;-66
2021/03/01 01:15:50;;;;;;;11.10;8.80;;;3.80;99.90;;;;;;5055255;28;20195;-66
2021/03/01 01:18:16;;;;;;;11.43;9.67;;;3.80;99.90;;;;;;5055405;28;20405;-66
2021/03/01 01:20:41;;;;;;;13.73;10.87;;;3.80;99.90;;;;;;5057777;28;20198;-66
2021/03/01 01:23:07;;;;;;;10.33;9.07;;;3.80;99.90;;;;;;5055646;28;20253;-66
2021/03/01 01:25:32;;;;;;;13.53;10.70;;;3.80;99.90;;;;;;5055151;28;20178;-66
2021/03/01 01:27:58;;;;;;;13.47;10.23;;;3.80;99.90;;;;;;5055370;28;20217;-66
2021/03/01 01:30:25;;;;;;;14.43;9.77;;;3.90;99.90;;;;;;5055045;28;20210;-66
2021/03/01 01:32:51;;;;;;;12.80;9.47;;;3.80;99.90;;;;;;5055434;28;20189;-66
2021/03/01 01:35:18;;;;;;;11.00;9.73;;;3.70;99.90;;;;;;5054765;28;20417;-65
2021/03/01 01:37:45;;;;;;;12.93;10.40;;;3.70;99.90;;;;;;5054872;28;20812;-65
2021/03/01 01:40:14;;;;;;;16.30;11.03;;;3.60;99.90;;;;;;5054132;28;20429;-65
2021/03/01 01:42:40;;;;;;;16.20;11.07;;;3.50;99.90;;;;;;5054997;28;20497;-66
2021/03/01 01:45:14;;;;;;;13.03;10.53;;;3.40;99.90;;;;;;5054515;28;20409;-66
2021/03/01 01:47:41;;;;;;;14.40;11.23;;;3.50;99.90;;;;;;5054754;28;20408;-66
2021/03/01 01:50:08;;;;;;;16.43;11.33;;;3.60;99.90;;;;;;5054359;28;20425;-65
2021/03/01 01:52:34;;;;;;;16.60;11.80;;;3.50;99.90;;;;;;5054348;28;20492;-65
2021/03/01 01:55:03;;;;;;;13.83;10.00;;;3.40;99.90;;;;;;5054099;28;20423;-65
2021/03/01 01:57:28;;;;;;;16.50;11.17;;;3.40;99.90;;;;;;5054265;28;20471;-65
2021/03/01 01:59:54;;;;;;;11.07;9.90;;;3.40;99.90;;;;;;5054093;28;20456;-65
2021/03/01 02:02:20;;;;;;;14.20;10.73;;;3.40;99.90;;;;;;5054106;28;20625;-65
2021/03/01 02:04:51;;;;;;;13.60;10.37;;;3.40;99.90;;;;;;5054385;28;20631;-65
2021/03/01 02:07:43;;;;;;;14.67;11.40;;;3.40;99.90;;;;;;5054545;28;20411;-66
2021/03/01 02:10:27;;;;;;;14.47;10.50;;;3.40;99.90;;;;;;5005694;28;20485;-65
2021/03/01 02:13:27;;;;;;;13.97;10.07;;;3.30;99.90;;;;;;5033473;28;20394;-65
2021/03/01 02:16:04;;;;;;;13.23;10.37;;;3.20;99.90;;;;;;5034234;28;20405;-65
2021/03/01 02:18:30;;;;;;;13.53;10.93;;;3.20;99.90;;;;;;5034436;28;20397;-65
2021/03/01 02:21:07;;;;;;;13.63;11.00;;;3.20;99.90;;;;;;5033820;28;20432;-65
2021/03/01 02:23:33;;;;;;;13.80;10.33;;;3.20;99.90;;;;;;5034032;28;20186;-66
2021/03/01 02:26:06;;;;;;;13.17;10.77;;;3.20;99.90;;;;;;5033497;28;20398;-66
2021/03/01 02:28:41;;;;;;;12.00;9.40;;;3.20;99.90;;;;;;5033966;28;20155;-65
2021/03/01 02:31:08;;;;;;;12.23;9.50;;;3.20;99.90;;;;;;5034212;28;20407;-66
2021/03/01 02:33:41;;;;;;;13.63;12.03;;;3.10;99.90;;;;;;5037929;28;20429;-66
2021/03/01 02:36:32;;;;;;;12.77;10.57;;;3.10;99.90;;;;;;5033584;28;20463;-65
2021/03/01 02:39:01;;;;;;;12.93;9.70;;;3.10;99.90;;;;;;5035915;28;20469;-65
2021/03/01 02:41:28;;;;;;;13.50;10.90;;;3.10;99.90;;;;;;5053082;28;20397;-65
2021/03/01 02:43:54;;;;;;;13.50;10.30;;;3.00;99.90;;;;;;5054181;28;20923;-65
2021/03/01 02:46:20;;;;;;;14.93;10.77;;;3.00;99.90;;;;;;5053244;28;20518;-65
2021/03/01 02:48:48;;;;;;;11.43;10.00;;;3.00;99.90;;;;;;5053980;28;20398;-65
2021/03/01 02:51:14;;;;;;;13.27;10.83;;;3.00;99.90;;;;;;5053469;28;20440;-64
2021/03/01 02:53:42;;;;;;;13.67;11.40;;;3.00;99.90;;;;;;5053415;28;20408;-65
2021/03/01 02:56:09;;;;;;;12.10;9.97;;;3.00;99.90;;;;;;5053144;28;20404;-66
2021/03/01 02:58:38;;;;;;;17.30;11.50;;;3.10;99.90;;;;;;5053264;28;20992;-65
2021/03/01 03:01:05;;;;;;;11.17;9.43;;;3.10;99.90;;;;;;5053098;28;20461;-66
2021/03/01 03:03:32;;;;;;;13.33;10.40;;;3.20;99.90;;;;;;5053404;28;20450;-66
2021/03/01 03:05:59;;;;;;;14.47;10.30;;;3.10;99.90;;;;;;5053534;28;20450;-66
2021/03/01 03:08:25;;;;;;;15.13;10.13;;;3.00;99.90;;;;;;5053341;28;21028;-66
2021/03/01 03:10:53;;;;;;;12.17;10.17;;;3.00;99.90;;;;;;5052759;28;20447;-66
2021/03/01 03:13:20;;;;;;;13.70;10.87;;;2.90;99.90;;;;;;5056073;28;20943;-66
2021/03/01 03:15:49;;;;;;;11.47;9.70;;;2.80;99.90;;;;;;5053074;28;20407;-66
2021/03/01 03:18:17;;;;;;;14.97;11.10;;;2.80;99.90;;;;;;5053575;28;20751;-66
2021/03/01 03:20:43;;;;;;;14.80;10.17;;;2.70;99.90;;;;;;5035937;28;20457;-66
2021/03/01 03:23:09;;;;;;;13.30;9.73;;;2.70;99.90;;;;;;5054658;28;20490;-66
2021/03/01 03:25:35;;;;;;;13.30;10.43;;;2.70;99.90;;;;;;5057499;28;20176;-66
2021/03/01 03:28:05;;;;;;;16.23;10.27;;;2.80;99.90;;;;;;5057693;28;20540;-66
2021/03/01 03:30:32;;;;;;;13.20;10.63;;;2.80;99.90;;;;;;5057106;28;20421;-66
2021/03/01 03:32:58;;;;;;;12.27;9.60;;;2.80;99.90;;;;;;5057359;28;20412;-65
2021/03/01 03:35:25;;;;;;;12.10;10.80;;;2.80;99.90;;;;;;5057204;28;20957;-66
2021/03/01 03:38:04;;;;;;;10.43;8.70;;;2.80;99.90;;;;;;5057222;28;20262;-66
2021/03/01 03:40:31;;;;;;;13.30;10.40;;;2.80;99.90;;;;;;5056854;28;20431;-65
2021/03/01 03:42:58;;;;;;;11.50;9.23;;;2.80;99.90;;;;;;5057561;28;20804;-65
2021/03/01 03:45:25;;;;;;;16.10;11.30;;;2.80;99.90;;;;;;5057244;28;20408;-66
2021/03/01 03:47:55;;;;;;;11.90;9.80;;;2.80;99.90;;;;;;5057319;28;20405;-66
2021/03/01 03:50:23;;;;;;;10.63;8.63;;;2.70;99.90;;;;;;5057213;28;20423;-66
2021/03/01 03:52:54;;;;;;;11.97;9.73;;;2.70;99.90;;;;;;5057192;28;20943;-66
2021/03/01 03:55:21;;;;;;;12.67;9.70;;;2.70;99.90;;;;;;5056840;28;20895;-66
2021/03/01 03:57:54;;;;;;;13.30;11.10;;;2.70;99.90;;;;;;5038836;28;20423;-65
2021/03/01 04:00:22;;;;;;;12.53;9.40;;;2.70;99.90;;;;;;5056530;28;20430;-66
2021/03/01 04:02:52;;;;;;;11.93;10.30;;;2.70;99.90;;;;;;5056740;28;20444;-66
2021/03/01 04:05:19;;;;;;;14.60;10.97;;;2.60;99.90;;;;;;5056792;28;20919;-66
2021/03/01 04:07:45;;;;;;;12.93;9.47;;;2.60;99.90;;;;;;5056705;28;20493;-65
2021/03/01 04:10:11;;;;;;;13.60;10.00;;;2.60;99.90;;;;;;5055991;28;20444;-66
2021/03/01 04:12:40;;;;;;;12.37;9.83;;;2.60;99.90;;;;;;5056669;28;20983;-66
2021/03/01 04:15:10;;;;;;;15.97;9.93;;;2.70;99.90;;;;;;5056802;28;21013;-66
2021/03/01 04:17:38;;;;;;;14.73;10.83;;;2.70;99.90;;;;;;5038283;28;20420;-65
2021/03/01 04:20:06;;;;;;;13.20;10.57;;;2.70;99.90;;;;;;5056423;28;20429;-65
2021/03/01 04:22:34;;;;;;;11.60;10.37;;;2.60;99.90;;;;;;5056323;28;21031;-65
2021/03/01 04:25:01;;;;;;;12.90;9.93;;;2.60;99.90;;;;;;5055843;28;20914;-65
2021/03/01 04:27:27;;;;;;;12.47;9.57;;;2.70;99.90;;;;;;5056068;28;20438;-65
2021/03/01 04:29:55;;;;;;;12.43;8.70;;;2.80;99.90;;;;;;5055646;28;20420;-65
2021/03/01 04:32:22;;;;;;;14.53;9.50;;;2.80;99.90;;;;;;5055904;28;20436;-66
2021/03/01 04:34:48;;;;;;;12.20;9.90;;;2.80;99.90;;;;;;5054880;28;20408;-65
2021/03/01 04:37:14;;;;;;;13.10;10.13;;;2.80;99.90;;;;;;5056531;28;20503;-65
2021/03/01 04:39:39;;;;;;;12.97;10.40;;;2.70;99.90;;;;;;5055685;28;20463;-65
2021/03/01 04:42:06;;;;;;;13.90;11.03;;;2.70;99.90;;;;;;5055902;28;20731;-65
2021/03/01 04:44:32;;;;;;;11.43;9.60;;;2.70;99.90;;;;;;5055992;28;20627;-65
2021/03/01 04:46:59;;;;;;;12.97;10.50;;;2.60;99.90;;;;;;5037703;28;20426;-65
2021/03/01 04:49:26;;;;;;;12.23;9.33;;;2.60;99.90;;;;;;5055644;28;20481;-65
2021/03/01 04:51:53;;;;;;;13.33;10.53;;;2.70;99.90;;;;;;5055675;28;20422;-65
2021/03/01 04:54:20;;;;;;;13.87;10.07;;;2.70;99.90;;;;;;5037694;28;20508;-65
2021/03/01 04:56:46;;;;;;;15.10;10.33;;;2.60;99.90;;;;;;5055315;28;20423;-65
2021/03/01 04:59:17;;;;;;;14.23;10.67;;;2.60;99.90;;;;;;5055393;28;20811;-65
2021/03/01 05:01:43;;;;;;;13.20;9.60;;;2.60;99.90;;;;;;5055110;28;20811;-64
2021/03/01 05:04:09;;;;;;;12.87;10.30;;;2.50;99.90;;;;;;5055426;28;20412;-65
2021/03/01 05:06:36;;;;;;;14.23;10.40;;;2.50;99.90;;;;;;5055443;28;20808;-65
2021/03/01 05:09:03;;;;;;;13.30;10.03;;;2.50;99.90;;;;;;5055236;28;20971;-65
2021/03/01 05:11:37;;;;;;;12.97;9.87;;;2.50;99.90;;;;;;5071969;28;20449;-65
2021/03/01 05:14:05;;;;;;;14.13;10.47;;;2.50;99.90;;;;;;5075657;28;20733;-64
2021/03/01 05:16:31;;;;;;;12.97;9.40;;;2.50;99.90;;;;;;5075353;28;20403;-65
2021/03/01 05:18:58;;;;;;;14.20;9.83;;;2.50;99.90;;;;;;5075378;28;20428;-65
2021/03/01 05:21:24;;;;;;;12.00;9.57;;;2.50;99.90;;;;;;5075472;28;20445;-64
2021/03/01 05:23:50;;;;;;;13.20;10.30;;;2.50;99.90;;;;;;5073864;28;20432;-66
2021/03/01 05:26:17;;;;;;;12.60;9.60;;;2.40;99.90;;;;;;5032106;28;20920;-63
2021/03/01 05:28:43;;;;;;;14.77;10.10;;;2.40;99.90;;;;;;5056767;28;20438;-61
2021/03/01 05:31:08;;;;;;;11.90;10.40;;;2.30;99.90;;;;;;5055944;28;20490;-61
2021/03/01 05:33:35;;;;;;;12.63;9.90;;;2.30;99.90;;;;;;5055943;28;20485;-62
2021/03/01 05:36:00;;;;;;;13.83;11.30;;;2.30;99.90;;;;;;5056207;28;20178;-62
2021/03/01 05:38:27;;;;;;;12.70;9.53;;;2.20;99.90;;;;;;5052999;28;20410;-62
2021/03/01 05:40:54;;;;;;;10.97;8.90;;;2.30;99.90;;;;;;5048937;28;20201;-61
2021/03/01 05:43:23;;;;;;;12.40;9.73;;;2.30;99.90;;;;;;5054129;28;20853;-61
2021/03/01 05:45:50;;;;;;;12.63;9.90;;;2.40;99.90;;;;;;5055297;28;20820;-61
2021/03/01 05:48:20;;;;;;;12.23;10.60;;;2.30;99.90;;;;;;5058009;28;20478;-61
2021/03/01 05:50:47;;;;;;;13.97;10.10;;;2.20;99.90;;;;;;5057199;28;20420;-61
2021/03/01 05:53:22;;;;;;;12.83;10.70;;;2.30;99.90;;;;;;5057484;28;20408;-61
2021/03/01 05:55:49;;;;;;;12.07;9.83;;;2.30;99.90;;;;;;5057598;28;20415;-61
2021/03/01 05:58:15;;;;;;;11.20;9.67;;;2.30;99.90;;;;;;5057477;28;20437;-62
2021/03/01 06:00:40;;;;;;;14.80;10.97;;;2.20;99.90;;;;;;5056905;28;20429;-62
2021/03/01 06:03:06;;;;;;;12.33;10.27;;;2.30;99.90;;;;;;5057835;28;20824;-62
2021/03/01 06:05:32;;;;;;;15.90;11.50;;;2.30;99.90;;;;;;5057417;28;20173;-62
2021/03/01 06:07:58;;;;;;;15.10;10.93;;;2.30;99.90;;;;;;5057087;28;20399;-63
2021/03/01 06:10:24;;;;;;;15.83;11.60;;;2.20;99.90;;;;;;5056588;22;20495;-63
2021/03/01 06:12:50;;;;;;;14.37;10.90;;;2.10;99.90;;;;;;5016210;28;20519;-63
2021/03/01 06:15:17;;;;;;;12.63;10.80;;;2.20;99.90;;;;;;5033734;28;20178;-63
2021/03/01 06:18:10;;;;;;;16.10;11.13;;;2.20;99.90;;;;;;5034375;28;20487;-62
2021/03/01 06:20:37;;;;;;;15.43;11.30;;;2.30;99.90;;;;;;5034334;28;20825;-62
2021/03/01 06:23:04;;;;;;;16.80;12.20;;;2.20;99.90;;;;;;5033683;28;20441;-64
2021/03/01 06:25:30;;;;;;;21.10;11.83;;;2.30;99.90;;;;;;5033358;28;20435;-62
2021/03/01 06:28:01;;;;;;;13.20;10.40;;;2.30;99.90;;;;;;5033672;28;20402;-62
2021/03/01 06:30:37;;;;;;;13.07;11.63;;;2.30;99.90;;;;;;5033465;28;20915;-62
2021/03/01 06:33:10;;;;;;;14.87;11.60;;;2.30;99.90;;;;;;5033966;28;20395;-64
2021/03/01 06:35:40;;;;;;;13.60;11.47;;;2.30;99.90;;;;;;5023562;28;20932;-63
2021/03/01 06:38:12;;;;;;;19.30;12.47;;;2.30;99.90;;;;;;5015079;28;20886;-63
2021/03/01 06:40:37;;;;;;;16.60;12.33;;;2.20;99.90;;;;;;5027175;28;20443;-63
2021/03/01 06:43:14;;;;;;;18.23;11.20;;;2.20;99.90;;;;;;5033333;28;20448;-63
2021/03/01 06:45:40;;;;;;;14.87;11.20;;;2.30;99.90;;;;;;5033125;28;20634;-64
2021/03/01 06:48:06;;;;;;;16.80;12.00;;;2.30;99.90;;;;;;5033341;28;20440;-63
2021/03/01 06:50:43;;;;;;;14.70;11.17;;;2.30;99.90;;;;;;5033344;28;20488;-64
2021/03/01 06:53:11;;;;;;;15.80;11.37;;;2.40;99.90;;;;;;5033297;28;20407;-63
2021/03/01 06:55:53;;;;;;;16.10;11.57;;;2.50;99.90;;;;;;5033103;28;20404;-65
2021/03/01 06:58:19;;;;;;;13.57;11.40;;;2.50;99.90;;;;;;5032944;28;20441;-64
2021/03/01 07:00:46;;;;;;;13.83;10.50;;;2.50;99.90;;;;;;5032759;28;20429;-65
2021/03/01 07:03:24;;;;;;;16.57;10.80;;;2.50;99.90;;;;;;5032955;28;20440;-65
2021/03/01 07:05:51;;;;;;;17.67;12.07;;;2.70;99.90;;;;;;5028119;28;20459;-64
2021/03/01 07:08:34;;;;;;;14.80;11.33;;;2.60;99.90;;;;;;5013643;28;20794;-65
2021/03/01 07:11:01;;;;;;;13.53;10.90;;;2.70;99.90;;;;;;5029849;28;20463;-64
2021/03/01 07:13:31;;;;;;;13.57;11.33;;;2.70;99.90;;;;;;5033032;28;20415;-64
2021/03/01 07:15:57;;;;;;;14.83;11.73;;;2.80;99.90;;;;;;5033055;28;20409;-65
2021/03/01 07:18:26;;;;;;;13.33;10.97;;;2.80;99.90;;;;;;5033200;28;20409;-65
2021/03/01 07:20:53;;;;;;;17.20;12.10;;;2.90;99.90;;;;;;5033659;28;20487;-62
2021/03/01 07:23:19;;;;;;;20.30;13.97;;;2.90;99.90;;;;;;5032899;28;20453;-64
2021/03/01 07:25:45;;;;;;;16.33;10.80;;;3.10;99.90;;;;;;5032923;28;20409;-63
2021/03/01 07:28:18;;;;;;;13.73;10.57;;;3.10;99.90;;;;;;5033206;28;20400;-64
2021/03/01 07:30:47;;;;;;;17.67;11.63;;;3.10;99.90;;;;;;5032929;28;20457;-63
2021/03/01 07:33:13;;;;;;;17.00;12.27;;;3.30;99.90;;;;;;5033632;28;20439;-64
2021/03/01 07:35:40;;;;;;;18.77;13.20;;;3.40;99.90;;;;;;5004676;28;20433;-65
2021/03/01 07:38:07;;;;;;;21.80;11.83;;;3.50;99.90;;;;;;5013236;28;20411;-65
2021/03/01 07:40:33;;;;;;;17.27;12.50;;;3.60;99.90;;;;;;5025954;28;20437;-65
2021/03/01 07:43:00;;;;;;;14.17;11.67;;;3.70;99.90;;;;;;5033437;28;20460;-65
2021/03/01 07:45:26;;;;;;;14.20;12.10;;;3.70;99.90;;;;;;5032549;28;20398;-65
2021/03/01 07:47:51;;;;;;;18.67;12.13;;;3.80;99.90;;;;;;5032444;28;20747;-65
2021/03/01 07:50:37;;;;;;;15.30;12.07;;;3.90;99.90;;;;;;5032895;28;20448;-65
2021/03/01 07:53:03;;;;;;;14.67;12.13;;;4.10;99.90;;;;;;5033003;28;20179;-64
2021/03/01 07:55:29;;;;;;;16.60;13.37;;;4.20;99.90;;;;;;5032483;28;20956;-65
2021/03/01 07:58:06;;;;;;;14.60;11.77;;;4.30;99.90;;;;;;5032798;28;20217;-65
2021/03/01 08:00:34;;;;;;;17.40;12.60;;;4.40;99.90;;;;;;5032257;28;20230;-65
2021/03/01 08:03:01;;;;;;;16.33;12.23;;;4.50;99.90;;;;;;5032712;28;20446;-65
2021/03/01 08:05:32;;;;;;;14.37;11.97;;;4.60;99.90;;;;;;5033128;28;20402;-65
2021/03/01 08:07:59;;;;;;;17.50;13.03;;;4.60;99.90;;;;;;5032538;28;20966;-64
2021/03/01 08:10:27;;;;;;;17.37;13.73;;;4.70;99.90;;;;;;5032749;28;20481;-65
2021/03/01 08:12:54;;;;;;;17.87;12.83;;;4.90;99.90;;;;;;5036307;28;20444;-64
2021/03/01 08:15:27;;;;;;;16.50;12.97;;;4.90;99.90;;;;;;5036300;28;20406;-65
2021/03/01 08:17:53;;;;;;;16.40;13.73;;;5.00;99.90;;;;;;5036880;28;20391;-64
2021/03/01 08:20:30;;;;;;;19.90;15.03;;;5.10;99.90;;;;;;5036142;28;20432;-64
2021/03/01 08:23:04;;;;;;;18.00;13.50;;;5.30;99.90;;;;;;5035993;28;20444;-64
2021/03/01 08:25:42;;;;;;;20.93;14.97;;;5.40;99.90;;;;;;5035593;28;20555;-65
2021/03/01 08:28:19;;;;;;;23.77;16.67;;;5.50;99.90;;;;;;5036050;28;20497;-64
2021/03/01 08:30:46;;;;;;;18.70;15.43;;;5.70;99.90;;;;;;5035598;28;20429;-65
2021/03/01 08:33:13;;;;;;;22.33;16.50;;;5.70;99.90;;;;;;5026630;28;20412;-65
2021/03/01 08:35:42;;;;;;;26.37;19.30;;;5.80;99.90;;;;;;5007422;28;20436;-65
2021/03/01 08:38:09;;;;;;;23.07;17.07;;;5.80;99.90;;;;;;4998935;28;20407;-65
2021/03/01 08:40:35;;;;;;;25.27;18.53;;;5.90;99.90;;;;;;5029674;28;20788;-65
2021/03/01 08:43:05;;;;;;;21.70;17.53;;;5.90;99.90;;;;;;5035779;28;20438;-65
2021/03/01 08:45:42;;;;;;;24.67;18.70;;;5.90;99.90;;;;;;5035629;28;20410;-65
2021/03/01 08:48:14;;;;;;;26.20;20.43;;;5.90;99.90;;;;;;5035927;28;20410;-65
2021/03/01 08:50:41;;;;;;;27.53;17.13;;;5.80;99.90;;;;;;5035779;28;20433;-65
2021/03/01 08:53:08;;;;;;;25.00;17.60;;;5.80;99.90;;;;;;5035760;28;20774;-65
2021/03/01 08:55:36;;;;;;;21.40;18.37;;;5.80;99.90;;;;;;5035481;28;20768;-65
2021/03/01 08:58:10;;;;;;;22.37;17.57;;;5.80;99.90;;;;;;5035492;28;20418;-65
2021/03/01 09:00:55;;;;;;;24.87;18.30;;;5.90;99.90;;;;;;5035634;28;20513;-65
2021/03/01 09:03:35;;;;;;;23.20;18.50;;;5.80;99.90;;;;;;5035317;28;21158;-65
2021/03/01 09:06:07;;;;;;;21.77;17.13;;;5.80;99.90;;;;;;5035462;28;20379;-65
2021/03/01 09:08:36;;;;;;;26.30;18.43;;;5.90;99.90;;;;;;5018007;28;20781;-65
2021/03/01 09:11:24;;;;;;;28.90;19.00;;;6.10;99.90;;;;;;5034703;28;20449;-64
2021/03/01 09:13:52;;;;;;;26.47;17.87;;;6.20;99.90;;;;;;5035925;28;20415;-65
2021/03/01 09:16:23;;;;;;;24.90;18.13;;;6.20;99.90;;;;;;5026578;28;20411;-65
2021/03/01 09:18:51;;;;;;;24.13;16.13;;;6.30;99.90;;;;;;5015546;28;20395;-65
2021/03/01 09:21:18;;;;;;;21.50;16.00;;;6.40;99.90;;;;;;5015304;28;20826;-65
2021/03/01 09:23:50;;;;;;;24.77;17.03;;;6.60;99.90;;;;;;5015562;28;20442;-65
2021/03/01 09:26:18;;;;;;;24.30;16.40;;;6.80;99.90;;;;;;5015215;28;20442;-65
2021/03/01 09:28:44;;;;;;;23.30;15.77;;;6.80;99.90;;;;;;5015387;28;20442;-65
2021/03/01 09:31:14;;;;;;;21.93;16.37;;;6.80;99.90;;;;;;5015311;28;20406;-65
2021/03/01 09:33:41;;;;;;;19.83;16.03;;;6.90;99.90;;;;;;5015113;28;20164;-65
2021/03/01 09:36:08;;;;;;;19.53;15.90;;;6.90;99.90;;;;;;5015532;28;20413;-65
2021/03/01 09:38:35;;;;;;;19.80;14.87;;;7.10;99.90;;;;;;5015111;28;20490;-65
2021/03/01 09:41:06;;;;;;;20.37;15.07;;;7.20;99.90;;;;;;5013498;28;20470;-65
2021/03/01 09:43:32;;;;;;;21.87;16.17;;;7.40;99.90;;;;;;5034551;28;20545;-65
2021/03/01 09:46:00;;;;;;;20.37;15.10;;;7.40;99.90;;;;;;5035062;28;20753;-65
2021/03/01 09:48:34;;;;;;;18.40;14.73;;;7.50;99.90;;;;;;5034196;28;20418;-65
2021/03/01 09:51:00;;;;;;;24.13;14.83;;;7.70;99.90;;;;;;5034843;28;20914;-65
2021/03/01 09:53:28;;;;;;;21.20;15.37;;;7.70;99.90;;;;;;5034702;28;20411;-65
2021/03/01 09:55:54;;;;;;;19.00;14.50;;;7.80;99.90;;;;;;5034272;28;20485;-65
2021/03/01 09:58:41;;;;;;;17.23;13.83;;;7.90;99.90;;;;;;5016550;28;20413;-65
2021/03/01 10:01:11;;;;;;;15.87;13.30;;;8.10;99.90;;;;;;4995299;28;20424;-65
2021/03/01 10:03:45;;;;;;;16.13;12.80;;;8.20;99.90;;;;;;4995069;28;20471;-65
2021/03/01 10:06:12;;;;;;;16.33;12.70;;;8.30;99.90;;;;;;4994925;28;20510;-65
2021/03/01 10:08:40;;;;;;;19.00;12.80;;;8.40;99.90;;;;;;4994895;28;20412;-65
2021/03/01 10:11:23;;;;;;;20.63;13.60;;;8.60;99.90;;;;;;5029482;28;20501;-63
2021/03/01 10:13:49;;;;;;;17.20;11.83;;;8.70;99.90;;;;;;5033961;28;20457;-63
2021/03/01 10:16:32;;;;;;;15.70;12.37;;;9.00;99.90;;;;;;5034175;28;20776;-66
2021/03/01 10:19:23;;;;;;;15.63;11.00;;;9.00;99.90;;;;;;5034451;28;20407;-65
2021/03/01 10:21:50;;;;;;;16.10;12.60;;;9.20;99.90;;;;;;5033809;28;20389;-65
2021/03/01 10:24:18;;;;;;;15.03;11.93;;;9.30;99.90;;;;;;5034015;28;20440;-65
2021/03/01 10:26:58;;;;;;;14.80;11.97;;;9.40;99.70;;;;;;5033772;28;20849;-65
2021/03/01 10:29:35;;;;;;;24.53;12.57;;;9.40;99.60;;;;;;5034065;28;20430;-65
2021/03/01 10:32:02;;;;;;;15.97;11.40;;;9.60;99.40;;;;;;5033687;28;20402;-65
2021/03/01 10:34:38;;;;;;;13.90;11.57;;;9.70;98.80;;;;;;5033802;28;20415;-65
2021/03/01 10:37:09;;;;;;;14.00;10.87;;;9.80;98.30;;;;;;5034162;28;20420;-65
2021/03/01 10:39:43;;;;;;;15.50;10.70;;;9.80;97.80;;;;;;5033617;28;20440;-65
2021/03/01 10:42:16;;;;;;;18.80;10.97;;;9.80;97.80;;;;;;5033364;28;20984;-63
2021/03/01 10:44:43;;;;;;;16.90;12.20;;;9.90;97.90;;;;;;5033669;28;20405;-63
2021/03/01 10:47:17;;;;;;;13.80;10.63;;;10.00;97.40;;;;;;5033515;28;20433;-63
2021/03/01 10:49:44;;;;;;;12.73;10.17;;;10.10;97.20;;;;;;5033525;28;20416;-63
2021/03/01 10:52:11;;;;;;;16.77;12.20;;;10.30;96.60;;;;;;5033402;28;20463;-65
2021/03/01 10:54:37;;;;;;;13.10;10.30;;;10.40;96.50;;;;;;5033489;28;20403;-65
2021/03/01 10:57:03;;;;;;;15.73;11.27;;;10.50;95.90;;;;;;5032570;28;20466;-65
2021/03/01 10:59:29;;;;;;;13.90;10.93;;;10.70;96.20;;;;;;5033262;28;20545;-63
2021/03/01 11:01:55;;;;;;;11.90;10.00;;;10.90;95.40;;;;;;5033003;28;20453;-65
2021/03/01 11:04:21;;;;;;;12.70;10.20;;;11.10;95.20;;;;;;5032922;28;20415;-65
2021/03/01 11:06:51;;;;;;;10.50;9.40;;;11.20;94.20;;;;;;5033186;28;20539;-65
2021/03/01 11:09:18;;;;;;;10.77;9.47;;;11.30;93.60;;;;;;5032943;28;20462;-64
2021/03/01 11:11:45;;;;;;;12.33;11.03;;;11.30;93.10;;;;;;5032773;28;20867;-65
2021/03/01 11:14:12;;;;;;;11.80;9.83;;;11.20;93.30;;;;;;5032794;28;20414;-63
2021/03/01 11:16:38;;;;;;;12.83;9.77;;;11.20;93.10;;;;;;5015098;28;20425;-63
2021/03/01 11:19:04;;;;;;;10.97;9.30;;;11.40;92.80;;;;;;5013250;28;20439;-63
2021/03/01 11:21:30;;;;;;;11.57;9.03;;;11.60;92.40;;;;;;5012966;28;20411;-62
2021/03/01 11:23:56;;;;;;;9.90;8.80;;;12.20;90.90;;;;;;4997423;28;20462;-62
2021/03/01 11:26:22;;;;;;;12.30;8.93;;;13.50;89.80;;;;;;5008953;28;20427;-63
2021/03/01 11:28:47;;;;;;;9.90;8.90;;;14.90;83.10;;;;;;5004511;28;20651;-63
2021/03/01 11:31:14;;;;;;;13.63;10.57;;;16.00;77.70;;;;;;5013029;28;20630;-63
2021/03/01 11:33:40;;;;;;;9.23;8.33;;;17.30;71.90;;;;;;5010994;28;20673;-62
2021/03/01 11:36:06;;;;;;;10.93;9.90;;;17.30;67.70;;;;;;4993944;28;20455;-63
2021/03/01 11:38:33;;;;;;;10.73;8.73;;;18.80;67.20;;;;;;4993327;28;20231;-64
2021/03/01 11:40:58;;;;;;;8.30;7.50;;;20.40;61.60;;;;;;5006044;28;20450;-63
2021/03/01 11:43:24;;;;;;;10.50;8.17;;;21.00;54.60;;;;;;5004122;28;20871;-63
2021/03/01 11:45:50;;;;;;;9.77;8.77;;;20.40;52.10;;;;;;5015618;28;20584;-63
2021/03/01 11:48:17;;;;;;;9.80;8.20;;;19.50;53.10;;;;;;5016386;28;20430;-64
2021/03/01 11:50:44;;;;;;;10.13;7.87;;;19.30;53.50;;;;;;5016466;28;20691;-63
2021/03/01 11:53:13;;;;;;;8.80;7.90;;;19.40;55.40;;;;;;5016319;28;20798;-63
2021/03/01 11:55:38;;;;;;;7.93;7.13;;;21.10;52.10;;;;;;5016303;28;20410;-64
2021/03/01 11:58:04;;;;;;;8.20;7.10;;;22.80;48.80;;;;;;5015726;28;20426;-64
2021/03/01 12:00:30;;;;;;;10.80;8.10;;;22.70;45.70;;;;;;5016510;28;20571;-64
2021/03/01 12:02:56;;;;;;;6.73;6.10;;;22.70;45.90;;;;;;5015912;28;20536;-64
2021/03/01 12:05:22;;;;;;;5.67;4.90;;;23.70;44.20;;;;;;5016262;28;20174;-64
2021/03/01 12:07:47;;;;;;;6.97;5.80;;;24.10;41.40;;;;;;5016319;28;20183;-64
2021/03/01 12:10:13;;;;;;;4.70;3.90;;;24.60;40.80;;;;;;5064568;23;20268;-63
2021/03/01 12:12:39;;;;;;;4.07;3.67;;;23.10;38.60;;;;;;5055922;28;20166;-63
2021/03/01 12:15:06;;;;;;;4.60;4.20;;;22.60;39.60;;;;;;5055831;28;20799;-64
2021/03/01 12:17:32;;;;;;;7.47;5.23;;;23.10;39.20;;;;;;5056126;28;20424;-62
2021/03/01 12:19:57;;;;;;;10.00;6.37;;;23.10;40.20;;;;;;5045280;28;20422;-63
2021/03/01 12:22:23;;;;;;;7.57;5.53;;;22.40;41.10;;;;;;5036227;28;20202;-65
2021/03/01 12:24:49;;;;;;;8.13;4.93;;;21.70;42.00;;;;;;5035395;28;20326;-63
2021/03/01 12:27:15;;;;;;;5.50;4.20;;;22.00;41.10;;;;;;5035719;28;20163;-65
2021/03/01 12:29:41;;;;;;;4.20;3.80;;;21.70;41.00;;;;;;5035653;28;20560;-65
2021/03/01 12:32:06;;;;;;;6.50;3.90;;;21.30;41.50;;;;;;5036146;28;20186;-65
2021/03/01 12:34:34;;;;;;;4.30;3.90;;;21.50;40.90;;;;;;5035975;28;20250;-64
2021/03/01 12:37:00;;;;;;;4.67;4.27;;;21.00;40.40;;;;;;5035984;28;20406;-65
2021/03/01 12:39:27;;;;;;;5.07;3.87;;;21.50;41.20;;;;;;5035636;28;20445;-64
2021/03/01 12:41:52;;;;;;;6.07;4.10;;;21.70;41.60;;;;;;5035565;28;20410;-64
2021/03/01 12:44:18;;;;;;;4.43;3.57;;;21.90;40.70;;;;;;5018034;28;20418;-64